Strona główna
METAR-TAF:

METAR-TAF

Lotnisko :

Port lotniczy Padang

Padang, Indonezja

Szerokość geograficzna: 00-47-12S, Długość geograficzna: 100-16-50E, wysokość: 5 m

METAR: brakujący

czas: 11:26 (04:26 UTC)

Prognoza

Raport powstał 5 godziny i 26 minut temu, godzina 23:00 UTC
Prognoza ważna od 11 godzina 00 UTC do 11 godzina 24 UTC
Wiatr 6 kt od południe
Widzialność 10 km lub więcej
Przerywane chmury na wysokości 1900 ft
Przejściowo
od 11 godzina 06 UTC do 11 godzina 09 UTC
Widzialność: 1500 m
Przerywane chmury na wysokości 1500 ft
deszcz

TAF: WIEE 102300Z 1100/1124 18006KT 9999 BKN019 TEMPO 1106/1109 1500 RA BKN015

Obserwacja i prognoza pogody dla ponad 4000 lotnisk (raport METAR i TAF).

Dostępne stacje oznaczono żółtymi i czerwonymi punktami na mapie.

Najedź kursorem aby zobaczyć nazwę stacji.

Kliknij aby zobaczyć obserwacje i prognozy pogody.

Aby zmienić mapę: kliknij na zielony przycisk z czarnym krzyżykiem, aby powiększyć; na zielony przycisk z myślnikiem, aby pomniejszyć; na zielone strzałki, aby przejść do map sąsiednich.


METAR-TAF: